sensor_id;sensor_type;location;lat;lon;timestamp;P1;durP1;ratioP1;P2;durP2;ratioP2
3359;SDS011;1693;49.602;11.046;2024-01-15T00:00:43;24.87;;;11.80;;
3359;SDS011;1693;49.602;11.046;2024-01-15T00:03:10;21.63;;;10.80;;
3359;SDS011;1693;49.602;11.046;2024-01-15T00:05:39;18.03;;;8.97;;
3359;SDS011;1693;49.602;11.046;2024-01-15T00:08:06;21.50;;;10.73;;
3359;SDS011;1693;49.602;11.046;2024-01-15T00:10:34;21.00;;;9.93;;
3359;SDS011;1693;49.602;11.046;2024-01-15T00:13:03;23.83;;;9.20;;
3359;SDS011;1693;49.602;11.046;2024-01-15T00:15:31;23.27;;;10.60;;
3359;SDS011;1693;49.602;11.046;2024-01-15T00:17:58;22.83;;;9.33;;
3359;SDS011;1693;49.602;11.046;2024-01-15T00:20:27;21.10;;;9.57;;
3359;SDS011;1693;49.602;11.046;2024-01-15T00:22:56;22.57;;;9.03;;
3359;SDS011;1693;49.602;11.046;2024-01-15T00:25:24;21.13;;;10.63;;
3359;SDS011;1693;49.602;11.046;2024-01-15T00:27:52;14.83;;;7.67;;
3359;SDS011;1693;49.602;11.046;2024-01-15T00:30:20;15.27;;;8.50;;
3359;SDS011;1693;49.602;11.046;2024-01-15T00:32:47;17.77;;;9.43;;
3359;SDS011;1693;49.602;11.046;2024-01-15T00:35:17;21.97;;;8.43;;
3359;SDS011;1693;49.602;11.046;2024-01-15T00:37:46;17.33;;;8.20;;
3359;SDS011;1693;49.602;11.046;2024-01-15T00:40:17;23.43;;;11.10;;
3359;SDS011;1693;49.602;11.046;2024-01-15T00:42:44;15.60;;;7.33;;
3359;SDS011;1693;49.602;11.046;2024-01-15T00:45:14;19.53;;;9.70;;
3359;SDS011;1693;49.602;11.046;2024-01-15T00:47:42;17.83;;;8.30;;
3359;SDS011;1693;49.602;11.046;2024-01-15T00:50:10;18.47;;;7.37;;
3359;SDS011;1693;49.602;11.046;2024-01-15T00:52:38;20.97;;;9.00;;
3359;SDS011;1693;49.602;11.046;2024-01-15T00:55:08;15.60;;;8.73;;
3359;SDS011;1693;49.602;11.046;2024-01-15T00:57:37;17.07;;;9.43;;
3359;SDS011;1693;49.602;11.046;2024-01-15T01:00:05;27.13;;;9.37;;
3359;SDS011;1693;49.602;11.046;2024-01-15T01:02:34;21.03;;;9.10;;
3359;SDS011;1693;49.602;11.046;2024-01-15T01:05:02;18.33;;;9.13;;
3359;SDS011;1693;49.602;11.046;2024-01-15T01:07:31;20.10;;;9.23;;
3359;SDS011;1693;49.602;11.046;2024-01-15T01:09:58;20.20;;;8.70;;
3359;SDS011;1693;49.602;11.046;2024-01-15T01:12:25;17.70;;;8.10;;
3359;SDS011;1693;49.602;11.046;2024-01-15T01:14:54;20.03;;;9.83;;
3359;SDS011;1693;49.602;11.046;2024-01-15T01:17:21;25.90;;;9.00;;
3359;SDS011;1693;49.602;11.046;2024-01-15T01:19:49;20.17;;;9.23;;
3359;SDS011;1693;49.602;11.046;2024-01-15T01:22:16;14.93;;;8.30;;
3359;SDS011;1693;49.602;11.046;2024-01-15T01:24:44;25.43;;;10.97;;
3359;SDS011;1693;49.602;11.046;2024-01-15T01:27:11;17.47;;;8.40;;
3359;SDS011;1693;49.602;11.046;2024-01-15T01:29:38;18.97;;;10.00;;
3359;SDS011;1693;49.602;11.046;2024-01-15T01:32:07;22.20;;;10.73;;
3359;SDS011;1693;49.602;11.046;2024-01-15T01:34:39;18.77;;;8.83;;
3359;SDS011;1693;49.602;11.046;2024-01-15T01:37:07;21.90;;;9.70;;
3359;SDS011;1693;49.602;11.046;2024-01-15T01:39:36;24.53;;;8.73;;
3359;SDS011;1693;49.602;11.046;2024-01-15T01:42:03;18.83;;;9.03;;
3359;SDS011;1693;49.602;11.046;2024-01-15T01:44:31;13.03;;;7.77;;
3359;SDS011;1693;49.602;11.046;2024-01-15T01:46:58;18.77;;;7.63;;
3359;SDS011;1693;49.602;11.046;2024-01-15T01:49:28;23.50;;;8.40;;
3359;SDS011;1693;49.602;11.046;2024-01-15T01:51:56;18.73;;;10.47;;
3359;SDS011;1693;49.602;11.046;2024-01-15T01:54:25;24.80;;;8.80;;
3359;SDS011;1693;49.602;11.046;2024-01-15T01:56:55;14.97;;;7.90;;
3359;SDS011;1693;49.602;11.046;2024-01-15T01:59:23;18.90;;;9.40;;
3359;SDS011;1693;49.602;11.046;2024-01-15T02:01:53;20.93;;;9.30;;
3359;SDS011;1693;49.602;11.046;2024-01-15T02:04:22;21.47;;;8.80;;
3359;SDS011;1693;49.602;11.046;2024-01-15T02:06:53;25.43;;;10.43;;
3359;SDS011;1693;49.602;11.046;2024-01-15T02:09:21;21.50;;;8.67;;
3359;SDS011;1693;49.602;11.046;2024-01-15T02:11:48;17.57;;;9.03;;
3359;SDS011;1693;49.602;11.046;2024-01-15T02:14:16;16.00;;;7.87;;
3359;SDS011;1693;49.602;11.046;2024-01-15T02:16:43;23.53;;;11.77;;
3359;SDS011;1693;49.602;11.046;2024-01-15T02:19:14;21.73;;;8.10;;
3359;SDS011;1693;49.602;11.046;2024-01-15T02:21:43;17.63;;;8.20;;
3359;SDS011;1693;49.602;11.046;2024-01-15T02:24:19;15.13;;;8.57;;
3359;SDS011;1693;49.602;11.046;2024-01-15T02:26:47;21.33;;;8.30;;
3359;SDS011;1693;49.602;11.046;2024-01-15T02:29:15;20.30;;;8.43;;
3359;SDS011;1693;49.602;11.046;2024-01-15T02:31:42;21.90;;;10.33;;
3359;SDS011;1693;49.602;11.046;2024-01-15T02:34:09;21.20;;;9.13;;
3359;SDS011;1693;49.602;11.046;2024-01-15T02:36:37;24.23;;;8.97;;
3359;SDS011;1693;49.602;11.046;2024-01-15T02:39:04;17.20;;;8.23;;
3359;SDS011;1693;49.602;11.046;2024-01-15T02:41:33;16.80;;;8.93;;
3359;SDS011;1693;49.602;11.046;2024-01-15T02:44:00;18.10;;;8.30;;
3359;SDS011;1693;49.602;11.046;2024-01-15T02:46:27;16.73;;;8.83;;
3359;SDS011;1693;49.602;11.046;2024-01-15T02:48:54;21.63;;;9.47;;
3359;SDS011;1693;49.602;11.046;2024-01-15T02:51:22;15.77;;;9.53;;
3359;SDS011;1693;49.602;11.046;2024-01-15T02:53:49;18.50;;;8.87;;
3359;SDS011;1693;49.602;11.046;2024-01-15T02:56:17;15.30;;;9.20;;
3359;SDS011;1693;49.602;11.046;2024-01-15T02:58:46;17.40;;;8.73;;
3359;SDS011;1693;49.602;11.046;2024-01-15T03:01:13;18.70;;;8.27;;
3359;SDS011;1693;49.602;11.046;2024-01-15T03:03:40;14.40;;;7.43;;
3359;SDS011;1693;49.602;11.046;2024-01-15T03:06:07;20.03;;;10.87;;
3359;SDS011;1693;49.602;11.046;2024-01-15T03:08:34;17.20;;;8.67;;
3359;SDS011;1693;49.602;11.046;2024-01-15T03:11:02;15.67;;;8.30;;
3359;SDS011;1693;49.602;11.046;2024-01-15T03:13:30;17.97;;;7.87;;
3359;SDS011;1693;49.602;11.046;2024-01-15T03:15:59;20.13;;;10.77;;
3359;SDS011;1693;49.602;11.046;2024-01-15T03:18:27;13.53;;;7.60;;
3359;SDS011;1693;49.602;11.046;2024-01-15T03:20:55;20.10;;;7.60;;
3359;SDS011;1693;49.602;11.046;2024-01-15T03:23:26;16.90;;;7.57;;
3359;SDS011;1693;49.602;11.046;2024-01-15T03:25:55;14.50;;;7.27;;
3359;SDS011;1693;49.602;11.046;2024-01-15T03:28:22;13.53;;;7.67;;
3359;SDS011;1693;49.602;11.046;2024-01-15T03:30:50;17.10;;;8.20;;
3359;SDS011;1693;49.602;11.046;2024-01-15T03:33:19;16.17;;;9.57;;
3359;SDS011;1693;49.602;11.046;2024-01-15T03:35:47;14.13;;;7.83;;
3359;SDS011;1693;49.602;11.046;2024-01-15T03:38:16;20.50;;;7.50;;
3359;SDS011;1693;49.602;11.046;2024-01-15T03:40:44;17.13;;;8.60;;
3359;SDS011;1693;49.602;11.046;2024-01-15T03:43:13;19.67;;;8.33;;
3359;SDS011;1693;49.602;11.046;2024-01-15T03:45:40;18.27;;;8.00;;
3359;SDS011;1693;49.602;11.046;2024-01-15T03:48:10;17.50;;;9.13;;
3359;SDS011;1693;49.602;11.046;2024-01-15T03:50:41;12.90;;;7.00;;
3359;SDS011;1693;49.602;11.046;2024-01-15T03:53:11;9.73;;;5.77;;
3359;SDS011;1693;49.602;11.046;2024-01-15T03:55:41;23.23;;;9.00;;
3359;SDS011;1693;49.602;11.046;2024-01-15T03:58:10;14.90;;;7.50;;
3359;SDS011;1693;49.602;11.046;2024-01-15T04:00:40;13.43;;;8.57;;
3359;SDS011;1693;49.602;11.046;2024-01-15T04:03:08;23.17;;;10.10;;
3359;SDS011;1693;49.602;11.046;2024-01-15T04:05:36;10.30;;;6.03;;
3359;SDS011;1693;49.602;11.046;2024-01-15T04:08:05;16.13;;;8.03;;
3359;SDS011;1693;49.602;11.046;2024-01-15T04:10:35;15.87;;;7.57;;
3359;SDS011;1693;49.602;11.046;2024-01-15T04:13:03;11.93;;;6.73;;
3359;SDS011;1693;49.602;11.046;2024-01-15T04:15:30;18.30;;;7.73;;
3359;SDS011;1693;49.602;11.046;2024-01-15T04:17:57;12.43;;;6.50;;
3359;SDS011;1693;49.602;11.046;2024-01-15T04:20:26;13.10;;;7.40;;
3359;SDS011;1693;49.602;11.046;2024-01-15T04:22:53;10.63;;;6.43;;
3359;SDS011;1693;49.602;11.046;2024-01-15T04:25:22;12.70;;;6.00;;
3359;SDS011;1693;49.602;11.046;2024-01-15T04:27:50;19.00;;;8.80;;
3359;SDS011;1693;49.602;11.046;2024-01-15T04:30:17;17.90;;;7.10;;
3359;SDS011;1693;49.602;11.046;2024-01-15T04:32:44;10.80;;;7.00;;
3359;SDS011;1693;49.602;11.046;2024-01-15T04:35:12;12.77;;;5.90;;
3359;SDS011;1693;49.602;11.046;2024-01-15T04:37:39;13.93;;;6.37;;
3359;SDS011;1693;49.602;11.046;2024-01-15T04:40:07;10.10;;;4.83;;
3359;SDS011;1693;49.602;11.046;2024-01-15T04:42:37;15.63;;;7.23;;
3359;SDS011;1693;49.602;11.046;2024-01-15T04:45:06;11.63;;;6.17;;
3359;SDS011;1693;49.602;11.046;2024-01-15T04:47:33;15.03;;;6.03;;
3359;SDS011;1693;49.602;11.046;2024-01-15T04:50:02;13.03;;;7.90;;
3359;SDS011;1693;49.602;11.046;2024-01-15T04:52:29;13.67;;;9.10;;
3359;SDS011;1693;49.602;11.046;2024-01-15T04:54:57;21.03;;;7.73;;
3359;SDS011;1693;49.602;11.046;2024-01-15T04:57:24;13.73;;;5.37;;
3359;SDS011;1693;49.602;11.046;2024-01-15T04:59:52;9.90;;;5.30;;
3359;SDS011;1693;49.602;11.046;2024-01-15T05:02:20;9.53;;;6.27;;
3359;SDS011;1693;49.602;11.046;2024-01-15T05:04:47;14.13;;;6.80;;
3359;SDS011;1693;49.602;11.046;2024-01-15T05:07:14;9.80;;;5.13;;
3359;SDS011;1693;49.602;11.046;2024-01-15T05:09:41;9.43;;;6.07;;
3359;SDS011;1693;49.602;11.046;2024-01-15T05:12:09;11.40;;;6.73;;
3359;SDS011;1693;49.602;11.046;2024-01-15T05:14:36;11.00;;;5.70;;
3359;SDS011;1693;49.602;11.046;2024-01-15T05:17:05;15.30;;;6.67;;
3359;SDS011;1693;49.602;11.046;2024-01-15T05:19:32;17.50;;;8.50;;
3359;SDS011;1693;49.602;11.046;2024-01-15T05:21:59;13.30;;;7.43;;
3359;SDS011;1693;49.602;11.046;2024-01-15T05:24:26;10.10;;;5.47;;
3359;SDS011;1693;49.602;11.046;2024-01-15T05:26:53;19.10;;;8.20;;
3359;SDS011;1693;49.602;11.046;2024-01-15T05:29:20;9.23;;;5.93;;
3359;SDS011;1693;49.602;11.046;2024-01-15T05:31:48;18.37;;;7.40;;
3359;SDS011;1693;49.602;11.046;2024-01-15T05:34:17;9.87;;;6.33;;
3359;SDS011;1693;49.602;11.046;2024-01-15T05:36:46;14.80;;;6.73;;
3359;SDS011;1693;49.602;11.046;2024-01-15T05:39:31;11.17;;;6.87;;
3359;SDS011;1693;49.602;11.046;2024-01-15T05:42:10;15.57;;;8.77;;
3359;SDS011;1693;49.602;11.046;2024-01-15T05:44:38;17.30;;;5.67;;
3359;SDS011;1693;49.602;11.046;2024-01-15T05:47:05;13.73;;;6.50;;
3359;SDS011;1693;49.602;11.046;2024-01-15T05:49:34;19.13;;;7.17;;
3359;SDS011;1693;49.602;11.046;2024-01-15T05:52:01;15.57;;;6.57;;
3359;SDS011;1693;49.602;11.046;2024-01-15T05:54:28;17.20;;;7.17;;
3359;SDS011;1693;49.602;11.046;2024-01-15T05:56:55;13.13;;;6.37;;
3359;SDS011;1693;49.602;11.046;2024-01-15T05:59:23;17.73;;;7.10;;
3359;SDS011;1693;49.602;11.046;2024-01-15T06:01:50;9.77;;;5.93;;
3359;SDS011;1693;49.602;11.046;2024-01-15T06:04:17;10.40;;;6.00;;
3359;SDS011;1693;49.602;11.046;2024-01-15T06:06:49;10.93;;;5.50;;
3359;SDS011;1693;49.602;11.046;2024-01-15T06:09:18;11.37;;;7.43;;
3359;SDS011;1693;49.602;11.046;2024-01-15T06:11:47;12.70;;;5.90;;
3359;SDS011;1693;49.602;11.046;2024-01-15T06:14:18;14.23;;;5.20;;
3359;SDS011;1693;49.602;11.046;2024-01-15T06:16:46;7.80;;;5.13;;
3359;SDS011;1693;49.602;11.046;2024-01-15T06:19:15;14.03;;;6.57;;
3359;SDS011;1693;49.602;11.046;2024-01-15T06:21:42;11.43;;;7.17;;
3359;SDS011;1693;49.602;11.046;2024-01-15T06:24:11;10.77;;;5.80;;
3359;SDS011;1693;49.602;11.046;2024-01-15T06:26:38;10.33;;;6.17;;
3359;SDS011;1693;49.602;11.046;2024-01-15T06:29:06;12.30;;;7.20;;
3359;SDS011;1693;49.602;11.046;2024-01-15T06:31:33;12.10;;;5.17;;
3359;SDS011;1693;49.602;11.046;2024-01-15T06:34:00;16.40;;;7.77;;
3359;SDS011;1693;49.602;11.046;2024-01-15T06:36:27;16.30;;;7.00;;
3359;SDS011;1693;49.602;11.046;2024-01-15T06:38:55;8.77;;;5.07;;
3359;SDS011;1693;49.602;11.046;2024-01-15T06:41:23;12.73;;;4.87;;
3359;SDS011;1693;49.602;11.046;2024-01-15T06:43:51;10.50;;;6.47;;
3359;SDS011;1693;49.602;11.046;2024-01-15T06:46:19;14.50;;;6.23;;
3359;SDS011;1693;49.602;11.046;2024-01-15T06:48:47;10.03;;;5.33;;
3359;SDS011;1693;49.602;11.046;2024-01-15T06:51:15;11.87;;;7.10;;
3359;SDS011;1693;49.602;11.046;2024-01-15T06:53:43;8.07;;;5.70;;
3359;SDS011;1693;49.602;11.046;2024-01-15T06:56:10;7.07;;;4.53;;
3359;SDS011;1693;49.602;11.046;2024-01-15T06:58:39;17.93;;;6.67;;
3359;SDS011;1693;49.602;11.046;2024-01-15T07:01:06;7.90;;;5.10;;
3359;SDS011;1693;49.602;11.046;2024-01-15T07:03:33;11.00;;;6.60;;
3359;SDS011;1693;49.602;11.046;2024-01-15T07:06:01;10.93;;;5.37;;
3359;SDS011;1693;49.602;11.046;2024-01-15T07:08:28;10.93;;;7.20;;
3359;SDS011;1693;49.602;11.046;2024-01-15T07:10:55;11.63;;;5.83;;
3359;SDS011;1693;49.602;11.046;2024-01-15T07:13:22;12.37;;;6.90;;
3359;SDS011;1693;49.602;11.046;2024-01-15T07:15:51;11.97;;;5.73;;
3359;SDS011;1693;49.602;11.046;2024-01-15T07:18:19;12.37;;;6.87;;
3359;SDS011;1693;49.602;11.046;2024-01-15T07:20:46;12.73;;;7.00;;
3359;SDS011;1693;49.602;11.046;2024-01-15T07:23:13;16.53;;;7.17;;
3359;SDS011;1693;49.602;11.046;2024-01-15T07:25:40;10.47;;;5.80;;
3359;SDS011;1693;49.602;11.046;2024-01-15T07:28:08;15.03;;;6.60;;
3359;SDS011;1693;49.602;11.046;2024-01-15T07:30:35;8.73;;;5.73;;
3359;SDS011;1693;49.602;11.046;2024-01-15T07:33:05;10.10;;;6.03;;
3359;SDS011;1693;49.602;11.046;2024-01-15T07:35:32;10.00;;;5.70;;
3359;SDS011;1693;49.602;11.046;2024-01-15T07:37:59;11.53;;;6.73;;
3359;SDS011;1693;49.602;11.046;2024-01-15T07:40:26;11.70;;;5.60;;
3359;SDS011;1693;49.602;11.046;2024-01-15T07:42:53;6.73;;;4.77;;
3359;SDS011;1693;49.602;11.046;2024-01-15T07:45:20;15.97;;;8.60;;
3359;SDS011;1693;49.602;11.046;2024-01-15T07:47:48;14.70;;;6.37;;
3359;SDS011;1693;49.602;11.046;2024-01-15T07:50:17;13.10;;;6.00;;
3359;SDS011;1693;49.602;11.046;2024-01-15T07:52:45;10.67;;;6.70;;
3359;SDS011;1693;49.602;11.046;2024-01-15T07:55:12;14.33;;;6.70;;
3359;SDS011;1693;49.602;11.046;2024-01-15T07:57:39;11.60;;;6.43;;
3359;SDS011;1693;49.602;11.046;2024-01-15T08:00:06;12.57;;;6.20;;
3359;SDS011;1693;49.602;11.046;2024-01-15T08:02:34;15.70;;;7.60;;
3359;SDS011;1693;49.602;11.046;2024-01-15T08:05:01;14.43;;;6.83;;
3359;SDS011;1693;49.602;11.046;2024-01-15T08:07:30;16.47;;;9.60;;
3359;SDS011;1693;49.602;11.046;2024-01-15T08:09:57;10.77;;;5.40;;
3359;SDS011;1693;49.602;11.046;2024-01-15T08:12:24;16.00;;;6.00;;
3359;SDS011;1693;49.602;11.046;2024-01-15T08:14:51;12.17;;;6.10;;
3359;SDS011;1693;49.602;11.046;2024-01-15T08:17:19;9.40;;;6.03;;
3359;SDS011;1693;49.602;11.046;2024-01-15T08:19:46;12.73;;;7.20;;
3359;SDS011;1693;49.602;11.046;2024-01-15T08:22:14;11.00;;;6.17;;
3359;SDS011;1693;49.602;11.046;2024-01-15T08:24:43;8.23;;;5.67;;
3359;SDS011;1693;49.602;11.046;2024-01-15T08:27:11;9.77;;;5.57;;
3359;SDS011;1693;49.602;11.046;2024-01-15T08:29:38;11.70;;;6.83;;
3359;SDS011;1693;49.602;11.046;2024-01-15T08:32:05;12.57;;;7.27;;
3359;SDS011;1693;49.602;11.046;2024-01-15T08:34:32;14.30;;;6.83;;
3359;SDS011;1693;49.602;11.046;2024-01-15T08:36:59;13.03;;;5.90;;
3359;SDS011;1693;49.602;11.046;2024-01-15T08:39:27;12.20;;;7.03;;
3359;SDS011;1693;49.602;11.046;2024-01-15T08:41:56;9.40;;;6.83;;
3359;SDS011;1693;49.602;11.046;2024-01-15T08:44:23;17.20;;;6.80;;
3359;SDS011;1693;49.602;11.046;2024-01-15T08:46:50;15.17;;;7.60;;
3359;SDS011;1693;49.602;11.046;2024-01-15T08:49:17;12.80;;;7.00;;
3359;SDS011;1693;49.602;11.046;2024-01-15T08:51:45;13.73;;;7.40;;
3359;SDS011;1693;49.602;11.046;2024-01-15T08:54:13;13.97;;;7.57;;
3359;SDS011;1693;49.602;11.046;2024-01-15T08:56:40;13.00;;;7.23;;
3359;SDS011;1693;49.602;11.046;2024-01-15T08:59:09;11.23;;;6.40;;
3359;SDS011;1693;49.602;11.046;2024-01-15T09:01:38;10.73;;;5.70;;
3359;SDS011;1693;49.602;11.046;2024-01-15T09:04:05;15.07;;;8.07;;
3359;SDS011;1693;49.602;11.046;2024-01-15T09:06:32;8.23;;;5.60;;
3359;SDS011;1693;49.602;11.046;2024-01-15T09:08:59;14.00;;;7.77;;
3359;SDS011;1693;49.602;11.046;2024-01-15T09:11:26;11.93;;;6.27;;
3359;SDS011;1693;49.602;11.046;2024-01-15T09:13:53;12.60;;;8.53;;
3359;SDS011;1693;49.602;11.046;2024-01-15T09:16:22;7.70;;;6.00;;
3359;SDS011;1693;49.602;11.046;2024-01-15T09:18:49;7.77;;;4.47;;
3359;SDS011;1693;49.602;11.046;2024-01-15T09:21:17;10.97;;;6.50;;
3359;SDS011;1693;49.602;11.046;2024-01-15T09:23:48;10.90;;;5.80;;
3359;SDS011;1693;49.602;11.046;2024-01-15T09:26:16;9.63;;;6.40;;
3359;SDS011;1693;49.602;11.046;2024-01-15T09:31:33;9.17;;;5.90;;
3359;SDS011;1693;49.602;11.046;2024-01-15T09:34:01;12.83;;;7.27;;
3359;SDS011;1693;49.602;11.046;2024-01-15T09:36:28;14.73;;;6.07;;
3359;SDS011;1693;49.602;11.046;2024-01-15T09:38:55;12.30;;;6.70;;
3359;SDS011;1693;49.602;11.046;2024-01-15T09:41:22;13.07;;;6.17;;
3359;SDS011;1693;49.602;11.046;2024-01-15T09:43:51;14.00;;;5.90;;
3359;SDS011;1693;49.602;11.046;2024-01-15T09:46:20;9.10;;;5.57;;
3359;SDS011;1693;49.602;11.046;2024-01-15T09:48:49;14.23;;;6.60;;
3359;SDS011;1693;49.602;11.046;2024-01-15T09:51:17;8.63;;;5.30;;
3359;SDS011;1693;49.602;11.046;2024-01-15T09:53:45;15.43;;;6.67;;
3359;SDS011;1693;49.602;11.046;2024-01-15T09:56:13;7.20;;;5.87;;
3359;SDS011;1693;49.602;11.046;2024-01-15T09:58:41;9.50;;;5.30;;
3359;SDS011;1693;49.602;11.046;2024-01-15T10:01:09;11.27;;;6.10;;
3359;SDS011;1693;49.602;11.046;2024-01-15T10:03:37;9.97;;;5.40;;
3359;SDS011;1693;49.602;11.046;2024-01-15T10:06:10;8.00;;;5.50;;
3359;SDS011;1693;49.602;11.046;2024-01-15T10:08:42;10.90;;;6.10;;
3359;SDS011;1693;49.602;11.046;2024-01-15T10:11:13;12.57;;;5.70;;
3359;SDS011;1693;49.602;11.046;2024-01-15T10:13:42;12.33;;;6.80;;
3359;SDS011;1693;49.602;11.046;2024-01-15T10:16:09;12.77;;;5.83;;
3359;SDS011;1693;49.602;11.046;2024-01-15T10:18:37;9.70;;;5.87;;
3359;SDS011;1693;49.602;11.046;2024-01-15T10:21:05;9.23;;;5.63;;
3359;SDS011;1693;49.602;11.046;2024-01-15T10:23:34;8.67;;;5.27;;
3359;SDS011;1693;49.602;11.046;2024-01-15T10:26:02;9.23;;;5.20;;
3359;SDS011;1693;49.602;11.046;2024-01-15T10:28:30;9.23;;;5.70;;
3359;SDS011;1693;49.602;11.046;2024-01-15T10:30:58;9.30;;;5.77;;
3359;SDS011;1693;49.602;11.046;2024-01-15T10:33:25;9.40;;;5.97;;
3359;SDS011;1693;49.602;11.046;2024-01-15T10:35:53;12.60;;;7.00;;
3359;SDS011;1693;49.602;11.046;2024-01-15T10:38:21;15.17;;;5.60;;
3359;SDS011;1693;49.602;11.046;2024-01-15T10:40:52;12.97;;;5.87;;
3359;SDS011;1693;49.602;11.046;2024-01-15T10:43:19;11.03;;;6.07;;
3359;SDS011;1693;49.602;11.046;2024-01-15T10:45:48;8.13;;;5.97;;
3359;SDS011;1693;49.602;11.046;2024-01-15T10:48:17;10.37;;;5.20;;
3359;SDS011;1693;49.602;11.046;2024-01-15T10:50:46;8.93;;;4.93;;
3359;SDS011;1693;49.602;11.046;2024-01-15T10:53:14;10.40;;;5.30;;
3359;SDS011;1693;49.602;11.046;2024-01-15T10:55:42;5.53;;;4.13;;
3359;SDS011;1693;49.602;11.046;2024-01-15T10:58:11;8.23;;;4.83;;
3359;SDS011;1693;49.602;11.046;2024-01-15T11:00:41;8.60;;;5.43;;
3359;SDS011;1693;49.602;11.046;2024-01-15T11:03:09;10.60;;;6.10;;
3359;SDS011;1693;49.602;11.046;2024-01-15T11:05:37;7.27;;;5.13;;
3359;SDS011;1693;49.602;11.046;2024-01-15T11:08:05;9.57;;;4.93;;
3359;SDS011;1693;49.602;11.046;2024-01-15T11:10:39;9.70;;;5.50;;
3359;SDS011;1693;49.602;11.046;2024-01-15T11:13:13;9.40;;;4.43;;
3359;SDS011;1693;49.602;11.046;2024-01-15T11:15:57;7.53;;;5.23;;
3359;SDS011;1693;49.602;11.046;2024-01-15T11:18:26;7.93;;;3.80;;
3359;SDS011;1693;49.602;11.046;2024-01-15T11:27:00;14.20;;;6.77;;
3359;SDS011;1693;49.602;11.046;2024-01-15T11:29:32;10.17;;;5.20;;
3359;SDS011;1693;49.602;11.046;2024-01-15T11:32:03;16.13;;;7.30;;
3359;SDS011;1693;49.602;11.046;2024-01-15T11:34:51;9.70;;;5.30;;
3359;SDS011;1693;49.602;11.046;2024-01-15T11:37:27;8.60;;;4.77;;
3359;SDS011;1693;49.602;11.046;2024-01-15T11:39:55;8.10;;;5.10;;
3359;SDS011;1693;49.602;11.046;2024-01-15T11:42:27;9.47;;;5.73;;
3359;SDS011;1693;49.602;11.046;2024-01-15T11:44:57;11.77;;;5.40;;
3359;SDS011;1693;49.602;11.046;2024-01-15T11:47:38;11.33;;;5.40;;
3359;SDS011;1693;49.602;11.046;2024-01-15T11:50:30;7.17;;;5.57;;
3359;SDS011;1693;49.602;11.046;2024-01-15T11:52:59;16.90;;;5.30;;
3359;SDS011;1693;49.602;11.046;2024-01-15T11:55:29;9.33;;;5.40;;
3359;SDS011;1693;49.602;11.046;2024-01-15T11:58:00;8.47;;;6.40;;
3359;SDS011;1693;49.602;11.046;2024-01-15T12:00:30;11.50;;;5.77;;
3359;SDS011;1693;49.602;11.046;2024-01-15T12:02:58;9.10;;;5.30;;
3359;SDS011;1693;49.602;11.046;2024-01-15T12:05:27;4.40;;;3.90;;
3359;SDS011;1693;49.602;11.046;2024-01-15T12:07:56;9.90;;;5.10;;
3359;SDS011;1693;49.602;11.046;2024-01-15T12:10:23;16.27;;;8.73;;
3359;SDS011;1693;49.602;11.046;2024-01-15T12:12:56;11.50;;;6.60;;
3359;SDS011;1693;49.602;11.046;2024-01-15T12:15:24;8.47;;;4.70;;
3359;SDS011;1693;49.602;11.046;2024-01-15T12:17:54;5.63;;;3.97;;
3359;SDS011;1693;49.602;11.046;2024-01-15T12:20:23;6.40;;;5.00;;
3359;SDS011;1693;49.602;11.046;2024-01-15T12:22:50;13.57;;;6.27;;
3359;SDS011;1693;49.602;11.046;2024-01-15T12:25:32;6.40;;;4.10;;
3359;SDS011;1693;49.602;11.046;2024-01-15T12:28:01;8.20;;;5.27;;
3359;SDS011;1693;49.602;11.046;2024-01-15T12:30:34;9.07;;;4.67;;
3359;SDS011;1693;49.602;11.046;2024-01-15T12:35:56;8.07;;;5.07;;
3359;SDS011;1693;49.602;11.046;2024-01-15T12:38:23;10.30;;;5.00;;
3359;SDS011;1693;49.602;11.046;2024-01-15T12:40:51;4.67;;;4.17;;
3359;SDS011;1693;49.602;11.046;2024-01-15T12:43:18;6.73;;;4.40;;
3359;SDS011;1693;49.602;11.046;2024-01-15T12:45:45;8.40;;;5.27;;
3359;SDS011;1693;49.602;11.046;2024-01-15T12:48:12;8.43;;;4.87;;
3359;SDS011;1693;49.602;11.046;2024-01-15T12:50:44;7.87;;;4.97;;
3359;SDS011;1693;49.602;11.046;2024-01-15T12:53:12;11.10;;;4.93;;
3359;SDS011;1693;49.602;11.046;2024-01-15T12:55:40;5.83;;;4.20;;
3359;SDS011;1693;49.602;11.046;2024-01-15T12:58:07;8.80;;;5.97;;
3359;SDS011;1693;49.602;11.046;2024-01-15T13:00:35;6.80;;;3.90;;
3359;SDS011;1693;49.602;11.046;2024-01-15T13:03:06;7.30;;;4.47;;
3359;SDS011;1693;49.602;11.046;2024-01-15T13:05:34;7.43;;;4.27;;
3359;SDS011;1693;49.602;11.046;2024-01-15T13:08:05;8.50;;;4.53;;
3359;SDS011;1693;49.602;11.046;2024-01-15T13:10:32;6.20;;;4.07;;
3359;SDS011;1693;49.602;11.046;2024-01-15T13:13:00;7.10;;;4.27;;
3359;SDS011;1693;49.602;11.046;2024-01-15T13:15:27;6.00;;;5.00;;
3359;SDS011;1693;49.602;11.046;2024-01-15T13:17:54;8.57;;;5.30;;
3359;SDS011;1693;49.602;11.046;2024-01-15T13:20:21;7.03;;;4.97;;
3359;SDS011;1693;49.602;11.046;2024-01-15T13:22:48;7.63;;;4.13;;
3359;SDS011;1693;49.602;11.046;2024-01-15T13:25:17;6.83;;;4.83;;
3359;SDS011;1693;49.602;11.046;2024-01-15T13:27:44;8.20;;;5.27;;
3359;SDS011;1693;49.602;11.046;2024-01-15T13:30:12;7.50;;;4.97;;
3359;SDS011;1693;49.602;11.046;2024-01-15T13:32:41;9.77;;;5.47;;
3359;SDS011;1693;49.602;11.046;2024-01-15T13:35:08;10.23;;;5.40;;
3359;SDS011;1693;49.602;11.046;2024-01-15T13:37:38;5.90;;;3.67;;
3359;SDS011;1693;49.602;11.046;2024-01-15T13:40:07;6.70;;;4.63;;
3359;SDS011;1693;49.602;11.046;2024-01-15T13:42:42;6.37;;;3.47;;
3359;SDS011;1693;49.602;11.046;2024-01-15T13:45:09;4.60;;;3.87;;
3359;SDS011;1693;49.602;11.046;2024-01-15T13:47:39;6.20;;;4.10;;
3359;SDS011;1693;49.602;11.046;2024-01-15T13:50:08;5.03;;;3.90;;
3359;SDS011;1693;49.602;11.046;2024-01-15T13:52:37;5.10;;;4.00;;
3359;SDS011;1693;49.602;11.046;2024-01-15T13:55:04;7.07;;;4.43;;
3359;SDS011;1693;49.602;11.046;2024-01-15T13:57:48;5.77;;;4.13;;
3359;SDS011;1693;49.602;11.046;2024-01-15T14:00:15;5.53;;;3.43;;
3359;SDS011;1693;49.602;11.046;2024-01-15T14:02:43;7.23;;;4.70;;
3359;SDS011;1693;49.602;11.046;2024-01-15T14:05:11;4.23;;;3.77;;
3359;SDS011;1693;49.602;11.046;2024-01-15T14:07:39;6.53;;;3.93;;
3359;SDS011;1693;49.602;11.046;2024-01-15T14:10:07;6.30;;;4.27;;
3359;SDS011;1693;49.602;11.046;2024-01-15T14:12:35;10.30;;;4.30;;
3359;SDS011;1693;49.602;11.046;2024-01-15T14:15:05;6.47;;;4.27;;
3359;SDS011;1693;49.602;11.046;2024-01-15T14:17:32;4.80;;;3.80;;
3359;SDS011;1693;49.602;11.046;2024-01-15T14:19:59;8.63;;;5.13;;
3359;SDS011;1693;49.602;11.046;2024-01-15T14:22:26;11.67;;;5.20;;
3359;SDS011;1693;49.602;11.046;2024-01-15T14:24:54;5.20;;;3.37;;
3359;SDS011;1693;49.602;11.046;2024-01-15T14:27:21;7.27;;;4.37;;
3359;SDS011;1693;49.602;11.046;2024-01-15T14:29:48;5.83;;;3.23;;
3359;SDS011;1693;49.602;11.046;2024-01-15T14:32:17;13.53;;;4.10;;
3359;SDS011;1693;49.602;11.046;2024-01-15T14:34:44;8.20;;;5.40;;
3359;SDS011;1693;49.602;11.046;2024-01-15T14:37:11;7.40;;;4.17;;
3359;SDS011;1693;49.602;11.046;2024-01-15T14:39:38;4.73;;;3.20;;
3359;SDS011;1693;49.602;11.046;2024-01-15T14:42:06;3.50;;;3.00;;
3359;SDS011;1693;49.602;11.046;2024-01-15T14:44:33;4.57;;;3.80;;
3359;SDS011;1693;49.602;11.046;2024-01-15T14:47:00;6.50;;;2.77;;
3359;SDS011;1693;49.602;11.046;2024-01-15T14:49:29;4.30;;;3.23;;
3359;SDS011;1693;49.602;11.046;2024-01-15T14:51:57;6.97;;;3.70;;
3359;SDS011;1693;49.602;11.046;2024-01-15T14:54:24;7.03;;;4.00;;
3359;SDS011;1693;49.602;11.046;2024-01-15T14:56:51;6.23;;;3.67;;
3359;SDS011;1693;49.602;11.046;2024-01-15T14:59:18;4.10;;;2.77;;
3359;SDS011;1693;49.602;11.046;2024-01-15T15:01:45;3.80;;;3.00;;
3359;SDS011;1693;49.602;11.046;2024-01-15T15:04:12;5.60;;;3.30;;
3359;SDS011;1693;49.602;11.046;2024-01-15T15:06:41;3.77;;;3.10;;
3359;SDS011;1693;49.602;11.046;2024-01-15T15:09:09;6.53;;;4.63;;